createdAt,value
2023-03-13T00:01:55.343Z,100811.00
2023-03-13T00:04:32.649Z,100797.00
2023-03-13T00:07:05.643Z,100797.00
2023-03-13T00:09:38.349Z,100801.00
2023-03-13T00:12:11.536Z,100799.00
2023-03-13T00:14:44.810Z,100799.00
2023-03-13T00:17:17.791Z,100796.00
2023-03-13T00:19:51.189Z,100796.00
2023-03-13T00:22:24.198Z,100783.00
2023-03-13T00:24:57.090Z,100788.00
2023-03-13T00:27:30.101Z,100785.00
2023-03-13T00:30:03.219Z,100776.00
2023-03-13T00:32:36.766Z,100773.00
2023-03-13T00:35:10.128Z,100782.00
2023-03-13T00:37:43.098Z,100780.00
2023-03-13T00:40:16.519Z,100767.00
2023-03-13T00:42:49.579Z,100768.00
2023-03-13T00:45:26.932Z,100774.00
2023-03-13T00:47:59.855Z,100759.00
2023-03-13T00:50:32.738Z,100767.00
2023-03-13T00:53:05.611Z,100776.00
2023-03-13T00:55:38.549Z,100772.00
2023-03-13T00:58:11.599Z,100765.00
2023-03-13T01:00:44.595Z,100763.00
2023-03-13T01:03:17.926Z,100765.00
2023-03-13T01:05:52.347Z,100765.00
2023-03-13T01:08:26.490Z,100744.00
2023-03-13T01:11:07.613Z,100750.00
2023-03-13T01:13:41.291Z,100733.00
2023-03-13T01:16:16.146Z,100747.00
2023-03-13T01:18:53.793Z,100751.00
2023-03-13T01:21:27.395Z,100736.00
2023-03-13T01:24:00.554Z,100738.00
2023-03-13T01:26:33.837Z,100742.00
2023-03-13T01:29:06.882Z,100738.00
2023-03-13T01:31:41.295Z,100749.00
2023-03-13T01:34:17.094Z,100755.00
2023-03-13T01:36:51.340Z,100747.00
2023-03-13T01:39:25.165Z,100750.00
2023-03-13T01:41:58.685Z,100734.00
2023-03-13T01:44:32.057Z,100742.00
2023-03-13T01:47:05.181Z,100748.00
2023-03-13T01:49:39.095Z,100741.00
2023-03-13T01:52:13.870Z,100734.00
2023-03-13T01:54:57.323Z,100728.00
2023-03-13T01:57:34.908Z,100728.00
2023-03-13T02:00:15.955Z,100727.00
2023-03-13T02:02:53.569Z,100725.00
2023-03-13T02:05:28.653Z,100721.00
2023-03-13T02:08:06.647Z,100714.00
2023-03-13T02:10:41.387Z,100712.00
2023-03-13T02:13:18.511Z,100720.00
2023-03-13T02:15:51.946Z,100722.00
2023-03-13T02:18:28.092Z,100717.00
2023-03-13T02:21:02.870Z,100711.00
2023-03-13T02:23:37.725Z,100713.00
2023-03-13T02:26:11.389Z,100696.00
2023-03-13T02:28:44.566Z,100696.00
2023-03-13T02:31:18.094Z,100701.00
2023-03-13T02:33:51.539Z,100704.00
2023-03-13T02:36:24.975Z,100701.00
2023-03-13T02:39:04.437Z,100695.00
2023-03-13T02:41:38.708Z,100696.00
2023-03-13T02:44:11.758Z,100697.00
2023-03-13T02:46:53.519Z,100690.00
2023-03-13T02:49:31.662Z,100691.00
2023-03-13T02:52:06.873Z,100690.00
2023-03-13T02:54:41.611Z,100700.00
2023-03-13T02:57:14.792Z,100692.00
2023-03-13T02:59:47.982Z,100678.00
2023-03-13T03:02:21.191Z,100677.00
2023-03-13T03:04:54.451Z,100679.00
2023-03-13T03:07:27.311Z,100675.00
2023-03-13T03:10:00.007Z,100673.00
2023-03-13T03:12:32.966Z,100676.00
2023-03-13T03:15:06.803Z,100681.00
2023-03-13T03:17:39.664Z,100685.00
2023-03-13T03:20:13.977Z,100682.00
2023-03-13T03:22:46.967Z,100675.00
2023-03-13T03:25:19.885Z,100674.00
2023-03-13T03:27:52.872Z,100664.00
2023-03-13T03:30:25.807Z,100667.00
2023-03-13T03:32:58.946Z,100671.00
2023-03-13T03:35:32.470Z,100655.00
2023-03-13T03:38:05.753Z,100655.00
2023-03-13T03:40:38.986Z,100647.00
2023-03-13T03:43:12.129Z,100655.00
2023-03-13T03:45:44.984Z,100651.00
2023-03-13T03:48:22.238Z,100656.00
2023-03-13T03:50:55.413Z,100658.00
2023-03-13T03:53:35.812Z,100648.00
2023-03-13T03:56:09.279Z,100647.00
2023-03-13T03:58:47.716Z,100648.00
2023-03-13T04:01:21.283Z,100643.00
2023-03-13T04:03:54.139Z,100660.00
2023-03-13T04:06:26.994Z,100650.00
2023-03-13T04:09:00.473Z,100657.00
2023-03-13T04:11:36.104Z,100652.00
2023-03-13T04:14:09.215Z,100665.00
2023-03-13T04:16:42.289Z,100655.00
2023-03-13T04:19:15.226Z,100656.00
2023-03-13T04:21:50.509Z,100647.00
2023-03-13T04:24:23.241Z,100652.00
2023-03-13T04:26:56.163Z,100649.00
2023-03-13T04:29:29.613Z,100651.00
2023-03-13T04:32:02.880Z,100651.00
2023-03-13T04:34:35.832Z,100650.00
2023-03-13T04:37:08.965Z,100658.00
2023-03-13T04:39:47.284Z,100654.00
2023-03-13T04:42:20.407Z,100651.00
2023-03-13T04:44:53.266Z,100649.00
2023-03-13T04:47:26.015Z,100660.00
2023-03-13T04:49:59.143Z,100655.00
2023-03-13T04:52:32.329Z,100655.00
2023-03-13T04:55:05.531Z,100670.00
2023-03-13T04:57:39.063Z,100661.00
2023-03-13T05:00:14.120Z,100664.00
2023-03-13T05:02:47.493Z,100677.00
2023-03-13T05:05:21.059Z,100686.00
2023-03-13T05:07:54.543Z,100696.00
2023-03-13T05:10:35.829Z,100688.00
2023-03-13T05:13:08.836Z,100693.00
2023-03-13T05:15:41.682Z,100696.00
2023-03-13T05:18:14.894Z,100689.00
2023-03-13T05:20:47.825Z,100685.00
2023-03-13T05:23:20.502Z,100694.00
2023-03-13T05:25:53.366Z,100700.00
2023-03-13T05:28:26.316Z,100709.00
2023-03-13T05:30:59.533Z,100715.00
2023-03-13T05:33:33.132Z,100710.00
2023-03-13T05:36:06.403Z,100712.00
2023-03-13T05:38:39.600Z,100701.00
2023-03-13T05:41:12.701Z,100707.00
2023-03-13T05:43:45.834Z,100704.00
2023-03-13T05:46:19.085Z,100700.00
2023-03-13T05:48:51.925Z,100700.00
2023-03-13T05:51:27.615Z,100698.00
2023-03-13T05:54:00.667Z,100697.00
2023-03-13T05:56:33.606Z,100705.00
2023-03-13T05:59:06.530Z,100720.00
2023-03-13T06:01:39.501Z,100716.00
2023-03-13T06:04:12.379Z,100722.00
2023-03-13T06:06:45.842Z,100727.00
2023-03-13T06:09:18.660Z,100720.00
2023-03-13T06:11:51.485Z,100731.00
2023-03-13T06:14:24.602Z,100748.00
2023-03-13T06:17:02.763Z,100756.00
2023-03-13T06:19:36.756Z,100757.00
2023-03-13T06:22:09.509Z,100770.00
2023-03-13T06:24:42.306Z,100762.00
2023-03-13T06:27:15.656Z,100769.00
2023-03-13T06:29:48.769Z,100770.00
2023-03-13T06:32:21.860Z,100766.00
2023-03-13T06:34:55.198Z,100774.00
2023-03-13T06:37:28.802Z,100781.00
2023-03-13T06:40:02.286Z,100778.00
2023-03-13T06:42:35.073Z,100784.00
2023-03-13T06:45:07.968Z,100779.00
2023-03-13T06:47:41.129Z,100794.00
2023-03-13T06:50:15.043Z,100796.00
2023-03-13T06:52:47.834Z,100785.00
2023-03-13T06:55:20.827Z,100793.00
2023-03-13T06:57:56.956Z,100795.00
2023-03-13T07:00:30.091Z,100784.00
2023-03-13T07:03:02.862Z,100785.00
2023-03-13T07:05:35.775Z,100795.00
2023-03-13T07:08:09.425Z,100797.00
2023-03-13T07:10:42.239Z,100796.00
2023-03-13T07:13:15.198Z,100794.00
2023-03-13T07:15:48.112Z,100784.00
2023-03-13T07:18:21.090Z,100792.00
2023-03-13T07:20:58.479Z,100811.00
2023-03-13T07:23:32.622Z,100809.00
2023-03-13T07:26:07.217Z,100809.00
2023-03-13T07:28:39.884Z,100815.00
2023-03-13T07:31:18.188Z,100816.00
2023-03-13T07:33:51.406Z,100817.00
2023-03-13T07:36:24.289Z,100816.00
2023-03-13T07:38:58.469Z,100820.00
2023-03-13T07:41:32.007Z,100820.00
2023-03-13T07:44:04.910Z,100820.00
2023-03-13T07:46:37.812Z,100815.00
2023-03-13T07:49:11.523Z,100827.00
2023-03-13T07:51:44.997Z,100822.00
2023-03-13T07:54:18.256Z,100825.00
2023-03-13T07:56:51.009Z,100826.00
2023-03-13T07:59:24.328Z,100827.00
2023-03-13T08:02:14.592Z,100827.00
2023-03-13T08:04:47.715Z,100838.00
2023-03-13T08:07:20.901Z,100839.00
2023-03-13T08:09:53.779Z,100845.00
2023-03-13T08:12:26.865Z,100858.00
2023-03-13T08:14:59.957Z,100863.00
2023-03-13T08:17:35.628Z,100859.00
2023-03-13T08:20:08.877Z,100869.00
2023-03-13T08:22:41.886Z,100870.00
2023-03-13T08:25:15.123Z,100872.00
2023-03-13T08:27:48.140Z,100878.00
2023-03-13T08:30:21.346Z,100867.00
2023-03-13T08:32:54.704Z,100872.00
2023-03-13T08:35:28.027Z,100877.00
2023-03-13T08:38:00.969Z,100886.00
2023-03-13T08:40:36.471Z,100892.00
2023-03-13T08:43:14.163Z,100889.00
2023-03-13T08:45:47.007Z,100890.00
2023-03-13T08:48:20.182Z,100891.00
2023-03-13T08:50:54.445Z,100885.00
2023-03-13T08:53:28.060Z,100894.00
2023-03-13T08:56:00.973Z,100898.00
2023-03-13T08:58:34.602Z,100895.00
2023-03-13T09:01:15.158Z,100913.00
2023-03-13T09:03:48.545Z,100915.00
2023-03-13T09:06:21.522Z,100922.00
2023-03-13T09:08:54.101Z,100923.00
2023-03-13T09:11:27.024Z,100930.00
2023-03-13T09:14:02.249Z,100926.00
2023-03-13T09:16:40.405Z,100923.00
2023-03-13T09:19:13.157Z,100932.00
2023-03-13T09:21:46.074Z,100940.00
2023-03-13T09:24:19.274Z,100936.00
2023-03-13T09:27:01.023Z,100941.00
2023-03-13T09:29:26.294Z,100939.00
2023-03-13T09:32:03.403Z,100938.00
2023-03-13T09:34:37.503Z,100936.00
2023-03-13T09:37:10.756Z,100939.00
2023-03-13T09:39:43.701Z,100945.00
2023-03-13T09:42:24.892Z,100939.00
2023-03-13T09:45:06.049Z,100952.00
2023-03-13T09:47:44.204Z,100945.00
2023-03-13T09:50:43.064Z,100955.00
2023-03-13T09:53:20.959Z,100956.00
2023-03-13T09:55:54.925Z,100953.00
2023-03-13T09:58:29.885Z,100966.00
2023-03-13T10:01:07.605Z,100971.00
2023-03-13T10:03:46.219Z,100969.00
2023-03-13T10:06:20.686Z,100969.00
2023-03-13T10:08:54.678Z,100970.00
2023-03-13T10:11:29.625Z,100978.00
2023-03-13T10:14:22.777Z,100973.00
2023-03-13T10:17:13.946Z,100974.00
2023-03-13T10:19:50.948Z,100982.00
2023-03-13T10:22:28.600Z,100984.00
2023-03-13T10:25:10.109Z,100994.00
2023-03-13T10:27:51.152Z,100999.00
2023-03-13T10:30:41.512Z,100995.00
2023-03-13T10:33:16.509Z,101012.00
2023-03-13T10:35:50.317Z,101011.00
2023-03-13T10:38:27.207Z,101027.00
2023-03-13T10:41:12.456Z,101017.00
2023-03-13T10:43:48.635Z,101025.00
2023-03-13T10:46:33.171Z,101019.00
2023-03-13T10:49:07.648Z,101018.00
2023-03-13T10:51:42.727Z,101023.00
2023-03-13T10:54:29.106Z,101031.00
2023-03-13T10:57:23.818Z,101009.00
2023-03-13T10:59:57.624Z,101018.00
2023-03-13T11:02:41.468Z,101021.00
2023-03-13T11:05:28.933Z,101026.00
2023-03-13T11:08:01.898Z,101029.00
2023-03-13T11:10:35.812Z,101039.00
2023-03-13T11:13:08.863Z,101034.00
2023-03-13T11:15:52.730Z,101037.00
2023-03-13T11:18:31.414Z,101042.00
2023-03-13T11:21:17.629Z,101058.00
2023-03-13T11:23:44.624Z,101040.00
2023-03-13T11:26:22.712Z,101047.00
2023-03-13T11:29:16.988Z,101039.00
2023-03-13T11:31:54.941Z,101048.00
2023-03-13T11:34:44.563Z,101058.00
2023-03-13T11:37:22.629Z,101060.00
2023-03-13T11:40:22.513Z,101067.00
2023-03-13T11:43:17.956Z,101064.00
2023-03-13T11:46:04.494Z,101067.00
2023-03-13T11:49:07.906Z,101076.00
2023-03-13T11:51:48.621Z,101071.00
2023-03-13T11:54:38.629Z,101064.00
2023-03-13T11:57:30.829Z,101059.00
2023-03-13T12:00:26.963Z,101059.00
2023-03-13T12:03:05.850Z,101056.00
2023-03-13T12:05:49.480Z,101060.00
2023-03-13T12:08:26.914Z,101065.00
2023-03-13T12:11:01.973Z,101078.00
2023-03-13T12:13:36.791Z,101070.00
2023-03-13T12:16:11.718Z,101073.00
2023-03-13T12:18:46.201Z,101067.00
2023-03-13T12:21:27.564Z,101067.00
2023-03-13T12:24:05.525Z,101076.00
2023-03-13T12:26:47.474Z,101068.00
2023-03-13T12:29:22.346Z,101073.00
2023-03-13T12:32:09.048Z,101071.00
2023-03-13T12:35:00.188Z,101086.00
2023-03-13T12:37:40.540Z,101092.00
2023-03-13T12:40:30.558Z,101087.00
2023-03-13T12:43:08.398Z,101091.00
2023-03-13T12:45:43.772Z,101094.00
2023-03-13T12:48:37.010Z,101087.00
2023-03-13T12:51:40.485Z,101087.00
2023-03-13T12:54:45.883Z,101101.00
2023-03-13T12:57:40.007Z,101099.00
2023-03-13T13:00:20.942Z,101105.00
2023-03-13T13:03:16.557Z,101106.00
2023-03-13T13:06:12.346Z,101110.00
2023-03-13T13:08:59.421Z,101116.00
2023-03-13T13:11:43.476Z,101123.00
2023-03-13T13:14:21.028Z,101118.00
2023-03-13T13:17:08.689Z,101118.00
2023-03-13T13:19:46.424Z,101125.00
2023-03-13T13:22:40.888Z,101130.00
2023-03-13T13:25:19.177Z,101116.00
2023-03-13T13:27:52.708Z,101124.00
2023-03-13T13:30:27.777Z,101127.00
2023-03-13T13:33:02.990Z,101122.00
2023-03-13T13:35:37.974Z,101122.00
2023-03-13T13:38:28.108Z,101119.00
2023-03-13T13:41:09.049Z,101123.00
2023-03-13T13:43:44.242Z,101127.00
2023-03-13T13:46:31.758Z,101121.00
2023-03-13T13:49:13.049Z,101124.00
2023-03-13T13:51:48.038Z,101123.00
2023-03-13T13:54:42.269Z,101119.00
2023-03-13T13:57:17.256Z,101111.00
2023-03-13T13:59:52.088Z,101128.00
2023-03-13T14:02:26.997Z,101122.00
2023-03-13T14:05:11.058Z,101124.00
2023-03-13T14:07:52.055Z,101129.00
2023-03-13T14:10:38.134Z,101130.00
2023-03-13T14:13:22.466Z,101140.00
2023-03-13T14:15:56.072Z,101135.00
2023-03-13T14:18:30.653Z,101133.00
2023-03-13T14:21:09.300Z,101132.00
2023-03-13T14:23:46.999Z,101133.00
2023-03-13T14:26:30.936Z,101137.00
2023-03-13T14:29:11.220Z,101121.00
2023-03-13T14:31:44.304Z,101126.00
2023-03-13T14:34:18.138Z,101116.00
2023-03-13T14:37:04.371Z,101117.00
2023-03-13T14:39:54.566Z,101126.00
2023-03-13T14:42:27.702Z,101137.00
2023-03-13T14:45:01.049Z,101132.00
2023-03-13T14:47:34.661Z,101138.00
2023-03-13T14:50:09.336Z,101147.00
2023-03-13T14:52:43.730Z,101130.00
2023-03-13T14:55:30.688Z,101133.00
2023-03-13T14:58:26.839Z,101119.00
2023-03-13T15:01:00.957Z,101116.00
2023-03-13T15:03:35.768Z,101127.00
2023-03-13T15:06:13.870Z,101135.00
2023-03-13T15:08:51.884Z,101141.00
2023-03-13T15:11:26.649Z,101141.00
2023-03-13T15:14:00.149Z,101150.00
2023-03-13T15:16:33.331Z,101141.00
2023-03-13T15:19:06.487Z,101148.00
2023-03-13T15:21:39.767Z,101142.00
2023-03-13T15:24:17.313Z,101149.00
2023-03-13T15:26:50.061Z,101148.00
2023-03-13T15:29:23.127Z,101159.00
2023-03-13T15:31:56.086Z,101164.00
2023-03-13T15:34:28.962Z,101167.00
2023-03-13T15:37:01.856Z,101165.00
2023-03-13T15:39:34.766Z,101166.00
2023-03-13T15:42:07.640Z,101169.00
2023-03-13T15:44:40.613Z,101168.00
2023-03-13T15:47:15.604Z,101171.00
2023-03-13T15:49:48.673Z,101178.00
2023-03-13T15:52:24.560Z,101180.00
2023-03-13T15:54:57.599Z,101188.00
2023-03-13T15:57:31.151Z,101191.00
2023-03-13T16:00:04.033Z,101205.00
2023-03-13T16:02:36.875Z,101198.00
2023-03-13T16:05:10.306Z,101203.00
2023-03-13T16:07:43.252Z,101205.00
2023-03-13T16:10:25.470Z,101209.00
2023-03-13T16:12:57.674Z,101224.00
2023-03-13T16:15:30.594Z,101225.00
2023-03-13T16:18:03.473Z,101220.00
2023-03-13T16:20:37.172Z,101224.00
2023-03-13T16:23:09.919Z,101222.00
2023-03-13T16:25:43.967Z,101220.00
2023-03-13T16:28:17.595Z,101222.00
2023-03-13T16:30:50.386Z,101225.00
2023-03-13T16:33:23.296Z,101224.00
2023-03-13T16:35:58.272Z,101236.00
2023-03-13T16:38:31.114Z,101231.00
2023-03-13T16:41:03.877Z,101237.00
2023-03-13T16:43:36.938Z,101245.00
2023-03-13T16:46:20.904Z,101248.00
2023-03-13T16:48:54.606Z,101240.00
2023-03-13T16:51:29.608Z,101242.00
2023-03-13T16:54:07.150Z,101242.00
2023-03-13T16:56:45.216Z,101251.00
2023-03-13T16:59:24.648Z,101253.00
2023-03-13T17:01:57.588Z,101255.00
2023-03-13T17:04:30.538Z,101257.00
2023-03-13T17:07:03.613Z,101266.00
2023-03-13T17:09:36.685Z,101269.00
2023-03-13T17:12:09.838Z,101271.00
2023-03-13T17:14:43.188Z,101275.00
2023-03-13T17:17:18.625Z,101279.00
2023-03-13T17:19:51.403Z,101287.00
2023-03-13T17:22:24.187Z,101294.00
2023-03-13T17:24:56.889Z,101290.00
2023-03-13T17:27:29.639Z,101303.00
2023-03-13T17:30:02.573Z,101293.00
2023-03-13T17:32:35.859Z,101306.00
2023-03-13T17:35:09.211Z,101309.00
2023-03-13T17:37:42.412Z,101318.00
2023-03-13T17:40:29.713Z,101325.00
2023-03-13T17:43:02.528Z,101330.00
2023-03-13T17:45:36.277Z,101332.00
2023-03-13T17:48:10.727Z,101336.00
2023-03-13T17:50:44.115Z,101335.00
2023-03-13T17:53:17.138Z,101331.00
2023-03-13T17:55:49.968Z,101336.00
2023-03-13T17:58:23.128Z,101341.00
2023-03-13T18:00:55.870Z,101350.00
2023-03-13T18:03:29.049Z,101357.00
2023-03-13T18:06:01.907Z,101350.00
2023-03-13T18:08:35.277Z,101366.00
2023-03-13T18:11:08.313Z,101374.00
2023-03-13T18:13:41.470Z,101372.00
2023-03-13T18:16:22.504Z,101376.00
2023-03-13T18:18:56.092Z,101392.00
2023-03-13T18:21:29.222Z,101388.00
2023-03-13T18:24:02.139Z,101398.00
2023-03-13T18:26:37.102Z,101409.00
2023-03-13T18:29:12.225Z,101418.00
2023-03-13T18:31:45.686Z,101418.00
2023-03-13T18:34:18.790Z,101433.00
2023-03-13T18:36:51.917Z,101440.00
2023-03-13T18:39:25.079Z,101444.00
2023-03-13T18:41:58.024Z,101450.00
2023-03-13T18:44:31.130Z,101461.00
2023-03-13T18:47:06.329Z,101453.00
2023-03-13T18:49:39.646Z,101465.00
2023-03-13T18:52:14.072Z,101463.00
2023-03-13T18:54:47.081Z,101472.00
2023-03-13T18:57:21.953Z,101473.00
2023-03-13T18:59:54.922Z,101475.00
2023-03-13T19:02:28.046Z,101470.00
2023-03-13T19:05:01.276Z,101479.00
2023-03-13T19:07:34.831Z,101481.00
2023-03-13T19:10:08.014Z,101485.00
2023-03-13T19:12:41.046Z,101481.00
2023-03-13T19:15:14.648Z,101499.00
2023-03-13T19:17:47.798Z,101490.00
2023-03-13T19:20:25.825Z,101504.00
2023-03-13T19:23:00.267Z,101505.00
2023-03-13T19:25:34.537Z,101515.00
2023-03-13T19:28:08.695Z,101512.00
2023-03-13T19:30:41.929Z,101505.00
2023-03-13T19:33:14.982Z,101504.00
2023-03-13T19:35:48.150Z,101506.00
2023-03-13T19:38:21.202Z,101507.00
2023-03-13T19:40:54.534Z,101520.00
2023-03-13T19:43:27.740Z,101520.00
2023-03-13T19:46:00.770Z,101516.00
2023-03-13T19:48:33.989Z,101521.00
2023-03-13T19:51:07.427Z,101518.00
2023-03-13T19:53:41.652Z,101521.00
2023-03-13T19:56:33.735Z,101520.00
2023-03-13T19:59:17.782Z,101530.00
2023-03-13T20:01:50.960Z,101531.00
2023-03-13T20:04:23.868Z,101529.00
2023-03-13T20:06:57.236Z,101529.00
2023-03-13T20:09:35.652Z,101530.00
2023-03-13T20:12:09.817Z,101529.00
2023-03-13T20:14:42.966Z,101538.00
2023-03-13T20:17:16.203Z,101544.00
2023-03-13T20:19:52.657Z,101549.00
2023-03-13T20:22:25.749Z,101535.00
2023-03-13T20:24:58.681Z,101542.00
2023-03-13T20:27:36.331Z,101561.00
2023-03-13T20:30:10.279Z,101558.00
2023-03-13T20:32:56.742Z,101559.00
2023-03-13T20:35:17.650Z,101557.00
2023-03-13T20:37:51.828Z,101558.00
2023-03-13T20:40:25.094Z,101560.00
2023-03-13T20:42:59.455Z,101567.00
2023-03-13T20:45:33.078Z,101570.00
2023-03-13T20:48:06.036Z,101572.00
2023-03-13T20:50:40.072Z,101579.00
2023-03-13T20:53:15.794Z,101587.00
2023-03-13T20:55:49.175Z,101583.00
2023-03-13T20:58:25.937Z,101597.00
2023-03-13T21:01:01.205Z,101593.00
2023-03-13T21:03:35.629Z,101597.00
2023-03-13T21:06:13.999Z,101593.00
2023-03-13T21:08:48.866Z,101593.00
2023-03-13T21:11:24.278Z,101600.00
2023-03-13T21:13:57.343Z,101599.00
2023-03-13T21:16:30.439Z,101607.00
2023-03-13T21:19:03.284Z,101608.00
2023-03-13T21:21:39.374Z,101618.00
2023-03-13T21:24:12.895Z,101622.00
2023-03-13T21:26:46.122Z,101626.00
2023-03-13T21:29:19.523Z,101628.00
2023-03-13T21:31:52.514Z,101640.00
2023-03-13T21:34:34.608Z,101630.00
2023-03-13T21:37:07.304Z,101640.00
2023-03-13T21:39:41.343Z,101639.00
2023-03-13T21:42:15.918Z,101638.00
2023-03-13T21:44:52.670Z,101641.00
2023-03-13T21:47:26.911Z,101636.00
2023-03-13T21:49:59.858Z,101635.00
2023-03-13T21:55:39.241Z,101650.00
2023-03-13T21:58:12.242Z,101642.00
2023-03-13T22:00:45.200Z,101646.00
2023-03-13T22:03:18.483Z,101648.00
2023-03-13T22:05:54.538Z,101642.00
2023-03-13T22:08:28.559Z,101655.00
2023-03-13T22:11:01.957Z,101644.00
2023-03-13T22:13:35.100Z,101648.00
2023-03-13T22:16:08.376Z,101647.00
2023-03-13T22:18:41.701Z,101655.00
2023-03-13T22:21:17.416Z,101652.00
2023-03-13T22:23:50.451Z,101650.00
2023-03-13T22:26:23.066Z,101653.00
2023-03-13T22:28:56.110Z,101652.00
2023-03-13T22:31:29.227Z,101656.00
2023-03-13T22:34:02.289Z,101653.00
2023-03-13T22:36:35.478Z,101652.00
2023-03-13T22:39:08.327Z,101653.00
2023-03-13T22:41:42.526Z,101651.00
2023-03-13T22:44:15.526Z,101655.00
2023-03-13T22:46:48.609Z,101654.00
2023-03-13T22:49:21.547Z,101666.00
2023-03-13T22:51:54.749Z,101664.00
2023-03-13T22:54:28.847Z,101660.00
2023-03-13T22:57:02.291Z,101667.00
2023-03-13T22:59:35.363Z,101664.00
2023-03-13T23:02:08.314Z,101659.00
2023-03-13T23:04:41.206Z,101667.00
2023-03-13T23:07:14.251Z,101674.00
2023-03-13T23:09:47.391Z,101669.00
2023-03-13T23:12:20.427Z,101663.00
2023-03-13T23:14:53.438Z,101661.00
2023-03-13T23:17:26.234Z,101657.00
2023-03-13T23:19:59.150Z,101654.00
2023-03-13T23:22:36.274Z,101662.00
2023-03-13T23:25:09.634Z,101653.00
2023-03-13T23:27:42.697Z,101670.00
2023-03-13T23:30:17.608Z,101656.00
2023-03-13T23:32:54.127Z,101659.00
2023-03-13T23:35:27.332Z,101664.00
2023-03-13T23:38:00.307Z,101651.00
2023-03-13T23:40:33.292Z,101661.00
2023-03-13T23:43:06.556Z,101648.00
2023-03-13T23:45:40.070Z,101651.00
2023-03-13T23:48:13.229Z,101665.00
2023-03-13T23:50:47.114Z,101664.00
2023-03-13T23:53:20.284Z,101654.00
2023-03-13T23:55:54.824Z,101655.00
2023-03-13T23:58:28.281Z,101659.00
